Time;durP1;ratioP1;P1;durP2;ratioP2;P2;SDS_P1;SDS_P2;PMS_P1;PMS_P2;Temp;Humidity;BMP_temperature;BMP_pressure;BME280_temperature;BME280_humidity;BME280_pressure;Samples;Min_cycle;Max_cycle;Signal;HPM_P1;HPM_P2
2021/11/08 00:00:28;;;;;;;;;3.50;3.00;;;;;21.28;41.66;101941.50;4959387;28;51979;-54
2021/11/08 00:02:53;;;;;;;;;6.00;4.25;;;;;21.26;41.13;101943.63;4961296;28;51041;-54
2021/11/08 00:05:19;;;;;;;;;6.00;5.50;;;;;21.25;41.17;101938.25;4964648;28;50916;-51
2021/11/08 00:07:48;;;;;;;;;9.00;5.00;;;;;21.24;41.18;101942.06;4960797;28;51339;-53
2021/11/08 00:10:13;;;;;;;;;7.25;6.00;;;;;21.20;41.67;101925.09;4963923;28;51843;-53
2021/11/08 00:12:39;;;;;;;;;4.00;3.25;;;;;21.19;41.70;101917.88;4959612;28;51150;-52
2021/11/08 00:15:07;;;;;;;;;8.00;5.25;;;;;21.17;41.71;101917.22;4957760;28;51601;-54
2021/11/08 00:20:11;;;;;;;;;7.75;3.75;;;;;21.14;41.38;101920.38;4963402;28;51109;-54
2021/11/08 00:22:39;;;;;;;;;3.50;3.00;;;;;21.14;41.60;101925.88;4959283;28;51372;-54
2021/11/08 00:25:07;;;;;;;;;5.25;5.25;;;;;21.12;41.56;101921.63;4961970;28;51185;-53
2021/11/08 00:27:33;;;;;;;;;4.75;4.50;;;;;21.11;41.75;101937.31;4968765;28;51158;-52
2021/11/08 00:29:58;;;;;;;;;6.75;6.25;;;;;21.09;41.47;101925.66;4957074;28;50983;-51
2021/11/08 00:32:25;;;;;;;;;5.50;4.00;;;;;21.08;41.46;101928.59;4960683;28;51293;-53
2021/11/08 00:34:51;;;;;;;;;5.00;4.00;;;;;21.07;41.29;101936.00;4964124;28;51128;-52
2021/11/08 00:37:16;;;;;;;;;4.00;4.00;;;;;21.05;41.58;101935.38;4960701;28;51420;-52
2021/11/08 00:39:42;;;;;;;;;5.75;5.00;;;;;21.03;41.92;101927.28;4962486;28;51648;-52
2021/11/08 00:42:08;;;;;;;;;5.75;4.00;;;;;21.03;41.88;101926.44;4959375;28;51064;-52
2021/11/08 00:44:34;;;;;;;;;4.00;4.00;;;;;21.02;41.62;101942.09;4972072;28;51030;-53
2021/11/08 00:47:00;;;;;;;;;3.75;3.75;;;;;21.01;41.72;101942.31;4987628;28;51173;-49
2021/11/08 00:49:26;;;;;;;;;5.00;4.25;;;;;20.99;41.43;101934.25;4959909;28;52154;-51
2021/11/08 00:51:53;;;;;;;;;4.00;3.00;;;;;20.97;41.91;101930.84;4964076;28;50951;-51
2021/11/08 00:54:18;;;;;;;;;3.75;3.25;;;;;20.96;41.81;101928.31;4958889;28;51154;-52
2021/11/08 00:56:47;;;;;;;;;4.75;4.00;;;;;20.95;41.49;101938.47;4943567;28;51221;-51
2021/11/08 00:59:14;;;;;;;;;4.50;4.50;;;;;20.93;41.60;101931.44;4956834;28;51879;-52
2021/11/08 01:01:41;;;;;;;;;4.25;4.25;;;;;20.93;41.99;101937.78;4965458;28;51288;-53
2021/11/08 01:04:07;;;;;;;;;7.75;5.50;;;;;20.91;41.94;101939.03;4956668;28;51160;-57
2021/11/08 01:06:33;;;;;;;;;5.25;4.25;;;;;20.90;41.64;101942.84;4958617;28;51119;-52
2021/11/08 01:08:59;;;;;;;;;4.25;4.25;;;;;20.89;41.71;101947.50;4960687;28;52514;-54
2021/11/08 01:11:24;;;;;;;;;5.25;4.00;;;;;20.88;41.92;101937.56;4967311;28;51095;-53
2021/11/08 01:13:49;;;;;;;;;6.25;4.00;;;;;20.88;41.72;101936.69;4965152;28;51156;-52
2021/11/08 01:16:16;;;;;;;;;5.25;5.00;;;;;20.86;41.90;101945.16;4999173;28;51102;-52
2021/11/08 01:18:42;;;;;;;;;6.50;5.50;;;;;20.84;42.21;101944.53;4958697;28;52171;-51
2021/11/08 01:21:08;;;;;;;;;6.00;4.75;;;;;20.84;42.00;101936.25;4958582;28;51485;-52
2021/11/08 01:23:34;;;;;;;;;5.25;3.50;;;;;20.83;42.27;101931.78;4959606;28;51091;-53
2021/11/08 01:26:07;;;;;;;;;3.75;3.25;;;;;20.82;42.02;101938.34;4962261;28;50966;-53
2021/11/08 01:28:39;;;;;;;;;3.25;3.25;;;;;20.82;41.76;101943.00;4959042;28;52677;-52
2021/11/08 01:31:07;;;;;;;;;5.00;5.00;;;;;20.80;42.08;101926.66;4964974;28;51163;-49
2021/11/08 01:33:33;;;;;;;;;3.50;3.50;;;;;20.80;41.83;101931.31;4963525;28;51218;-53
2021/11/08 01:36:24;;;;;;;;;6.00;4.00;;;;;20.79;41.89;101932.38;4957825;28;51137;-53
2021/11/08 01:38:47;;;;;;;;;4.50;3.50;;;;;20.76;42.20;101928.13;4961386;28;52586;-51
2021/11/08 01:41:24;;;;;;;;;3.00;2.75;;;;;20.75;41.97;101927.28;4959203;28;51093;-54
2021/11/08 01:43:50;;;;;;;;;4.25;4.25;;;;;20.75;41.98;101923.69;4955468;28;51136;-49
2021/11/08 01:46:18;;;;;;;;;10.25;5.25;;;;;20.74;42.10;101924.72;4956820;28;51001;-53
2021/11/08 01:48:44;;;;;;;;;8.00;5.00;;;;;20.72;41.69;101922.16;4961331;28;52493;-53
2021/11/08 01:51:10;;;;;;;;;2.25;2.25;;;;;20.71;42.19;101920.44;4963869;28;51422;-53
2021/11/08 01:53:35;;;;;;;;;3.00;3.00;;;;;20.70;41.88;101918.75;4968336;28;51209;-52
2021/11/08 01:56:01;;;;;;;;;6.00;4.50;;;;;20.70;42.24;101928.91;4963165;28;51189;-54
2021/11/08 01:58:30;;;;;;;;;7.50;4.00;;;;;20.69;42.22;101921.69;4962288;28;51325;-53
2021/11/08 02:00:57;;;;;;;;;3.75;3.00;;;;;20.69;42.32;101924.44;4962987;28;51013;-54
2021/11/08 02:03:23;;;;;;;;;3.50;3.50;;;;;20.68;42.16;101915.34;4966716;28;51162;-51
2021/11/08 02:05:48;;;;;;;;;5.50;4.25;;;;;20.67;42.21;101915.53;4959619;28;51101;-52
2021/11/08 02:08:15;;;;;;;;;2.00;1.25;;;;;20.67;41.93;101912.78;4962747;28;51827;-54
2021/11/08 02:10:41;;;;;;;;;4.00;2.50;;;;;20.65;42.24;101914.91;4963952;28;51232;-53
2021/11/08 02:13:08;;;;;;;;;4.75;4.00;;;;;20.65;42.34;101920.41;4960963;28;51272;-53
2021/11/08 02:15:36;;;;;;;;;5.00;5.00;;;;;20.64;42.25;101907.69;4960768;28;51334;-53
2021/11/08 02:18:03;;;;;;;;;5.25;4.00;;;;;20.63;42.11;101912.31;4964284;28;51166;-54
2021/11/08 02:20:30;;;;;;;;;4.00;4.00;;;;;20.61;42.13;101911.66;4965168;28;51537;-54
2021/11/08 02:22:59;;;;;;;;;6.00;5.00;;;;;20.62;42.12;101918.03;4963284;28;51082;-54
2021/11/08 02:25:27;;;;;;;;;5.25;3.75;;;;;20.61;42.08;101913.56;4961945;28;52507;-54
2021/11/08 02:27:52;;;;;;;;;3.75;3.75;;;;;20.59;42.12;101910.16;4968232;28;51943;-54
2021/11/08 02:30:20;;;;;;;;;3.50;3.25;;;;;20.58;42.44;101909.31;4963539;28;51100;-53
2021/11/08 02:32:47;;;;;;;;;4.25;4.25;;;;;20.58;41.94;101908.47;4961949;28;50991;-50
2021/11/08 02:35:15;;;;;;;;;5.25;3.25;;;;;20.58;42.58;101905.72;4960076;28;51228;-54
2021/11/08 02:37:40;;;;;;;;;7.25;6.75;;;;;20.57;42.01;101913.13;4960503;28;51907;-54
2021/11/08 02:40:13;;;;;;;;;5.75;3.00;;;;;20.55;42.35;101906.13;4960063;28;51247;-52
2021/11/08 02:42:38;;;;;;;;;6.50;4.25;;;;;20.54;42.30;101902.53;4957941;28;51474;-52
2021/11/08 02:45:07;;;;;;;;;2.50;2.50;;;;;20.54;42.14;101899.75;4964675;28;51102;-53
2021/11/08 02:47:33;;;;;;;;;4.25;4.00;;;;;20.53;42.00;101899.94;4962069;28;51704;-53
2021/11/08 02:50:00;;;;;;;;;3.25;3.00;;;;;20.53;42.52;101899.94;4958955;28;51203;-53
2021/11/08 02:52:27;;;;;;;;;3.50;2.50;;;;;20.52;42.79;101901.84;4959535;28;51278;-53
2021/11/08 02:54:52;;;;;;;;;6.50;5.25;;;;;20.51;42.44;101896.53;4956392;28;51226;-53
2021/11/08 02:57:21;;;;;;;;;4.25;4.00;;;;;20.51;41.99;101904.78;4965219;28;51572;-52
2021/11/08 02:59:47;;;;;;;;;4.00;3.00;;;;;20.50;42.33;101912.19;4963111;28;51223;-53
2021/11/08 03:02:15;;;;;;;;;3.00;3.00;;;;;20.49;42.62;101910.50;4965116;28;51176;-53
2021/11/08 03:04:46;;;;;;;;;5.25;3.50;;;;;20.48;42.21;101908.78;4959657;28;51399;-52
2021/11/08 03:07:13;;;;;;;;;3.50;3.25;;;;;20.46;42.19;101906.25;4964423;28;52132;-51
2021/11/08 03:09:43;;;;;;;;;4.50;3.00;;;;;20.45;42.16;101901.78;4960885;28;51376;-52
2021/11/08 03:12:15;;;;;;;;;4.25;4.00;;;;;20.46;42.37;101910.91;4996194;28;51205;-52
2021/11/08 03:15:29;;;;;;;;;4.50;2.75;;;;;20.44;42.16;101902.84;4957188;28;52094;-52
2021/11/08 03:17:40;;;;;;;;;3.75;2.75;;;;;20.43;42.33;101906.66;4959863;28;51738;-52
2021/11/08 03:20:10;;;;;;;;;3.75;3.75;;;;;20.42;42.38;101915.03;4959594;28;51600;-53
2021/11/08 03:22:36;;;;;;;;;5.50;3.25;;;;;20.42;42.52;101909.53;4958112;28;51084;-53
2021/11/08 03:25:10;;;;;;;;;4.00;3.75;;;;;20.41;42.70;101919.69;4965810;28;51120;-54
2021/11/08 03:30:00;;;;;;;;;3.25;3.25;;;;;20.41;42.33;101921.59;4960258;28;51084;-53
2021/11/08 03:32:26;;;;;;;;;3.75;3.00;;;;;20.39;42.31;101919.03;4957002;28;51107;-54
2021/11/08 03:34:58;;;;;;;;;4.00;4.00;;;;;20.39;42.43;101926.44;4963749;28;51297;-52
2021/11/08 03:37:25;;;;;;;;;5.50;5.50;;;;;20.38;42.33;101916.50;4973281;28;51687;-52
2021/11/08 03:39:51;;;;;;;;;4.00;3.25;;;;;20.38;42.29;101922.00;4968388;28;51417;-52
2021/11/08 03:42:18;;;;;;;;;4.00;4.00;;;;;20.36;42.06;101919.44;4971898;28;51141;-52
2021/11/08 03:44:43;;;;;;;;;2.00;2.00;;;;;20.36;42.58;101916.69;4970771;28;51381;-49
2021/11/08 03:47:09;;;;;;;;;3.50;3.00;;;;;20.35;42.21;101919.66;4957079;28;51077;-56
2021/11/08 03:49:34;;;;;;;;;4.75;3.00;;;;;20.33;42.33;101921.75;4962324;28;51172;-53
2021/11/08 03:52:00;;;;;;;;;5.00;3.50;;;;;20.34;42.53;101915.19;4963717;28;52619;-53
2021/11/08 03:54:27;;;;;;;;;4.00;3.75;;;;;20.33;42.49;101911.59;4965587;28;51596;-51
2021/11/08 03:56:52;;;;;;;;;4.00;2.75;;;;;20.32;42.01;101909.00;4969068;28;51128;-52
2021/11/08 03:59:18;;;;;;;;;3.75;3.75;;;;;20.31;42.51;101908.16;4964255;28;51223;-51
2021/11/08 04:01:44;;;;;;;;;5.00;4.00;;;;;20.31;42.51;101913.66;4961082;28;51011;-52
2021/11/08 04:04:09;;;;;;;;;4.50;3.00;;;;;20.30;42.68;101905.59;4957303;28;51044;-51
2021/11/08 04:06:38;;;;;;;;;6.00;5.00;;;;;20.30;42.24;101908.34;4954126;28;50953;-49
2021/11/08 04:09:06;;;;;;;;;6.75;3.50;;;;;20.29;42.24;101914.91;4965252;28;51506;-51
2021/11/08 04:11:33;;;;;;;;;2.50;1.00;;;;;20.28;42.49;101914.06;4972834;28;51254;-52
2021/11/08 04:13:58;;;;;;;;;5.00;4.75;;;;;20.27;42.54;101909.59;4972176;28;51473;-54
2021/11/08 04:16:27;;;;;;;;;4.50;4.00;;;;;20.26;42.51;101909.81;4954092;28;51772;-52
2021/11/08 04:18:55;;;;;;;;;5.75;4.25;;;;;20.26;42.23;101907.06;4961729;28;51062;-53
2021/11/08 04:21:21;;;;;;;;;5.00;4.00;;;;;20.24;42.52;101912.75;4971677;28;51336;-51
2021/11/08 04:23:47;;;;;;;;;2.50;2.50;;;;;20.24;42.22;101923.75;4972713;28;51387;-52
2021/11/08 04:26:17;;;;;;;;;3.00;3.00;;;;;20.23;42.21;101912.97;4971862;28;51199;-52
2021/11/08 04:28:49;;;;;;;;;5.00;3.00;;;;;20.23;42.30;101916.56;4964303;28;51010;-50
2021/11/08 04:31:15;;;;;;;;;4.00;3.75;;;;;20.22;42.37;101916.72;4964368;28;51585;-50
2021/11/08 04:33:52;;;;;;;;;3.50;3.50;;;;;20.21;42.20;101913.13;4959780;28;51331;-51
2021/11/08 04:41:29;;;;;;;;;3.50;3.50;;;;;20.18;42.42;101919.88;4959485;28;51479;-53
2021/11/08 05:24:20;;;;;;;;;5.00;2.75;;;;;20.06;42.58;101926.94;4972502;28;51047;-54
2021/11/08 05:32:20;;;;;;;;;3.00;1.75;;;;;20.05;42.47;101933.50;4960306;28;51246;-50
2021/11/08 05:34:45;;;;;;;;;7.00;4.25;;;;;20.04;42.48;101929.03;4973009;28;51325;-55
2021/11/08 05:37:11;;;;;;;;;3.00;3.00;;;;;20.03;42.40;101930.09;4971536;28;51105;-49
2021/11/08 05:39:40;;;;;;;;;6.25;3.00;;;;;20.03;42.38;101934.72;4967608;28;51290;-53
2021/11/08 05:42:06;;;;;;;;;3.50;3.50;;;;;20.02;42.45;101935.78;4955854;28;51352;-53
2021/11/08 05:44:33;;;;;;;;;3.00;3.00;;;;;20.01;42.45;101934.94;4970654;28;51199;-50
2021/11/08 05:46:58;;;;;;;;;6.50;3.00;;;;;20.01;42.59;101945.94;4969471;28;51221;-53
2021/11/08 05:49:23;;;;;;;;;4.00;3.25;;;;;20.00;42.71;101941.44;4961745;28;51124;-51
2021/11/08 05:51:49;;;;;;;;;4.00;3.00;;;;;20.00;42.42;101946.94;4969046;28;51101;-53
2021/11/08 05:54:19;;;;;;;;;5.75;3.50;;;;;20.00;42.67;101949.69;4967208;28;51210;-52
2021/11/08 05:57:00;;;;;;;;;3.00;2.25;;;;;19.99;42.61;101942.50;4963584;28;51224;-53
2021/11/08 06:51:11;;;;;;;;;9.25;7.50;;;;;20.18;40.42;101996.06;4960405;28;51161;-54
2021/11/08 06:53:38;;;;;;;;;7.00;5.25;;;;;20.26;40.28;102006.09;4960963;28;53963;-50
2021/11/08 06:56:04;;;;;;;;;8.50;6.00;;;;;20.34;40.54;102000.50;4960392;28;51216;-51
2021/11/08 06:58:30;;;;;;;;;7.75;6.75;;;;;20.42;40.53;102001.25;4955893;28;51159;-49
2021/11/08 07:00:56;;;;;;;;;7.00;5.50;;;;;20.51;40.37;102010.25;4966240;28;51054;-51
2021/11/08 07:03:22;;;;;;;;;4.00;4.00;;;;;20.58;40.42;102011.19;4962395;28;51897;-49
2021/11/08 07:05:47;;;;;;;;;5.25;3.75;;;;;20.67;40.44;102014.66;4957945;28;52499;-52
2021/11/08 07:08:13;;;;;;;;;5.00;5.00;;;;;20.74;40.39;102004.59;4970893;28;51010;-53
2021/11/08 07:10:39;;;;;;;;;5.50;5.00;;;;;20.82;40.90;102014.59;4963633;28;51862;-53
2021/11/08 07:13:06;;;;;;;;;6.00;5.00;;;;;20.89;40.72;102015.53;4958464;28;51161;-53
2021/11/08 07:15:31;;;;;;;;;5.75;4.75;;;;;20.90;40.76;102018.06;4960693;28;51376;-50
2021/11/08 07:17:57;;;;;;;;;5.25;5.00;;;;;20.91;40.67;102027.19;4968960;28;50978;-52
2021/11/08 07:20:23;;;;;;;;;4.50;4.50;;;;;20.90;40.85;102023.59;4961374;28;51470;-48
2021/11/08 07:22:49;;;;;;;;;3.50;2.50;;;;;20.89;40.95;102023.78;4966076;28;52625;-53
2021/11/08 07:25:15;;;;;;;;;6.00;4.75;;;;;20.87;40.54;102015.72;4958436;28;51004;-54
2021/11/08 07:27:41;;;;;;;;;5.00;4.00;;;;;20.87;41.02;102023.97;4964265;28;51243;-56
2021/11/08 07:30:08;;;;;;;;;6.50;4.00;;;;;20.92;40.98;102020.63;4967828;28;51506;-52
2021/11/08 07:32:34;;;;;;;;;4.75;3.75;;;;;20.98;41.36;102019.84;4960573;28;52324;-53
2021/11/08 07:34:59;;;;;;;;;7.00;5.50;;;;;21.05;41.40;102023.53;4956456;28;51728;-54
2021/11/08 07:37:25;;;;;;;;;4.50;4.00;;;;;21.13;40.92;102030.78;4955166;28;51146;-50
2021/11/08 07:39:51;;;;;;;;;3.50;3.00;;;;;21.19;41.18;102033.59;4954991;28;51077;-51
2021/11/08 07:42:18;;;;;;;;;4.00;3.00;;;;;21.23;41.05;102034.06;4951812;28;51903;-51
2021/11/08 07:44:44;;;;;;;;;3.25;2.75;;;;;21.25;41.29;102040.22;4964105;28;51065;-54
2021/11/08 07:47:10;;;;;;;;;4.50;4.00;;;;;21.24;40.96;102038.50;4962927;28;51388;-53
2021/11/08 07:49:36;;;;;;;;;7.75;4.75;;;;;21.23;41.42;102040.41;4969231;27;51166;-54
2021/11/08 07:52:03;;;;;;;;;4.50;4.50;;;;;21.19;41.42;102044.63;4971171;28;51970;-55
2021/11/08 07:54:32;;;;;;;;;6.00;3.25;;;;;21.18;41.02;102048.44;4954712;28;51318;-51
2021/11/08 07:56:59;;;;;;;;;6.00;5.00;;;;;21.16;40.53;102041.44;4956174;28;50929;-54
2021/11/08 07:59:24;;;;;;;;;9.50;6.25;;;;;21.12;40.61;102048.38;4954633;28;50987;-53
2021/11/08 08:01:50;;;;;;;;;6.50;6.00;;;;;21.07;40.68;102054.47;4954406;28;51369;-53
2021/11/08 08:04:16;;;;;;;;;7.50;4.75;;;;;21.03;40.52;102051.25;4954162;27;51421;-51
2021/11/08 08:06:43;;;;;;;;;7.00;5.50;;;;;21.00;40.61;102054.41;4972493;28;51253;-53
2021/11/08 08:09:08;;;;;;;;;9.25;5.50;;;;;20.96;40.96;102050.34;4973468;28;51560;-52
2021/11/08 08:11:34;;;;;;;;;7.75;4.00;;;;;20.94;40.66;102054.31;4973236;28;51899;-51
2021/11/08 08:14:00;;;;;;;;;5.00;5.00;;;;;20.91;40.84;102060.25;4973302;28;51041;-52
2021/11/08 08:16:26;;;;;;;;;3.25;3.00;;;;;20.87;40.67;102062.53;4957658;28;51011;-50
2021/11/08 08:18:52;;;;;;;;;5.75;5.00;;;;;20.85;40.86;102063.78;4953950;28;51209;-56
2021/11/08 08:21:18;;;;;;;;;6.25;4.50;;;;;20.83;40.87;102054.84;4968533;28;53889;-53
2021/11/08 08:23:44;;;;;;;;;5.00;4.50;;;;;20.80;40.74;102058.00;4953624;28;51371;-52
2021/11/08 08:26:12;;;;;;;;;4.75;3.75;;;;;20.76;40.59;102060.31;4968836;28;51679;-52
2021/11/08 08:28:38;;;;;;;;;7.00;5.00;;;;;20.73;40.75;102061.53;4993025;28;51231;-52
2021/11/08 08:31:04;;;;;;;;;8.50;6.00;;;;;20.70;41.29;102059.16;4972111;28;51885;-53
2021/11/08 08:33:31;;;;;;;;;6.25;5.75;;;;;20.69;41.20;102059.38;4953806;28;51025;-53
2021/11/08 08:35:57;;;;;;;;;5.00;4.25;;;;;20.66;41.14;102066.13;4964141;28;51155;-53
2021/11/08 08:38:22;;;;;;;;;8.00;5.00;;;;;20.64;41.16;102072.88;4972173;28;51673;-53
2021/11/08 08:40:50;;;;;;;;;7.00;4.75;;;;;20.63;41.11;102068.38;4957124;28;52139;-52
2021/11/08 08:43:17;;;;;;;;;4.50;3.50;;;;;20.61;41.34;102073.25;4953477;28;51415;-53
2021/11/08 08:45:43;;;;;;;;;5.75;4.00;;;;;20.58;41.26;102066.22;4953777;28;51051;-51
2021/11/08 08:48:11;;;;;;;;;4.25;3.00;;;;;20.57;41.28;102075.53;4953998;28;51067;-51
2021/11/08 08:50:36;;;;;;;;;5.00;3.75;;;;;20.55;41.17;102069.38;4972576;28;52599;-53
2021/11/08 08:53:02;;;;;;;;;5.00;4.00;;;;;20.54;41.36;102072.34;4973020;28;51036;-54
2021/11/08 08:55:28;;;;;;;;;4.25;4.25;;;;;20.52;41.61;102080.75;4970719;28;51046;-54
2021/11/08 08:57:54;;;;;;;;;7.50;4.00;;;;;20.51;41.21;102081.81;4975928;28;51179;-53
2021/11/08 09:00:21;;;;;;;;;7.75;6.00;;;;;20.50;41.30;102080.09;4971371;28;51236;-54
2021/11/08 09:02:49;;;;;;;;;4.50;3.50;;;;;20.50;41.27;102082.00;4964118;28;51360;-52
2021/11/08 09:05:15;;;;;;;;;5.25;4.50;;;;;20.47;41.11;102077.75;4956393;28;51189;-53
2021/11/08 09:07:41;;;;;;;;;4.50;3.25;;;;;20.45;41.33;102080.69;4956526;28;50955;-52
2021/11/08 09:10:06;;;;;;;;;6.25;4.75;;;;;20.44;41.22;102079.00;4955698;28;51798;-52
2021/11/08 09:12:32;;;;;;;;;6.25;4.25;;;;;20.43;41.30;102079.19;4956322;28;51604;-52
2021/11/08 09:14:57;;;;;;;;;5.25;5.25;;;;;20.42;41.28;102074.66;4974383;28;51108;-52
2021/11/08 09:17:23;;;;;;;;;4.75;3.75;;;;;20.41;41.45;102076.56;4975294;28;51009;-53
2021/11/08 09:19:49;;;;;;;;;6.75;5.25;;;;;20.41;41.04;102078.47;4990453;27;51055;-53
2021/11/08 09:22:14;;;;;;;;;6.00;4.50;;;;;20.39;41.40;102075.91;4976110;28;50958;-52
2021/11/08 09:24:41;;;;;;;;;4.00;4.00;;;;;20.40;41.69;102079.53;4973622;28;50967;-52
2021/11/08 09:27:07;;;;;;;;;6.25;4.25;;;;;20.39;41.40;102080.56;4986098;28;51017;-53
2021/11/08 09:29:32;;;;;;;;;7.50;5.75;;;;;20.38;41.42;102073.34;4994828;28;52118;-52
2021/11/08 09:31:58;;;;;;;;;6.00;4.25;;;;;20.38;41.09;102079.72;4995494;28;51216;-54
2021/11/08 09:34:24;;;;;;;;;6.75;5.00;;;;;20.39;41.13;102075.91;4981675;27;51188;-52
2021/11/08 09:36:52;;;;;;;;;6.25;4.75;;;;;20.38;41.18;102078.88;4975549;28;50976;-52
2021/11/08 09:39:25;;;;;;;;;4.00;4.00;;;;;20.40;41.05;102083.13;4974733;28;51671;-54
2021/11/08 09:41:53;;;;;;;;;4.50;4.50;;;;;20.40;40.92;102080.38;4975400;28;51337;-51
2021/11/08 09:44:19;;;;;;;;;6.00;5.75;;;;;20.39;41.18;102089.66;4964186;28;51316;-54
2021/11/08 09:46:49;;;;;;;;;5.75;4.75;;;;;20.41;40.90;102083.97;4956103;28;51065;-52
2021/11/08 09:49:15;;;;;;;;;5.00;4.50;;;;;20.41;40.83;102093.09;4955446;28;51078;-52
2021/11/08 09:51:43;;;;;;;;;5.50;5.00;;;;;20.43;40.67;102081.94;4957402;28;51292;-53
2021/11/08 09:54:10;;;;;;;;;6.50;5.00;;;;;20.42;40.74;102081.06;4958994;28;51093;-51
2021/11/08 09:56:38;;;;;;;;;7.00;7.00;;;;;20.44;41.31;102078.13;4974036;28;51441;-52
2021/11/08 09:59:03;;;;;;;;;5.25;5.00;;;;;20.45;40.63;102068.84;4971828;28;52231;-53
2021/11/08 10:01:32;;;;;;;;;5.50;4.00;;;;;20.46;40.91;102073.28;4975316;28;51048;-51
2021/11/08 10:03:58;;;;;;;;;5.50;5.50;;;;;20.48;40.80;102082.19;4971768;28;51095;-53
2021/11/08 10:06:23;;;;;;;;;5.25;5.25;;;;;20.50;40.65;102077.34;4974228;28;51308;-48
2021/11/08 10:08:49;;;;;;;;;5.75;5.75;;;;;20.51;40.69;102073.53;4974826;28;51879;-52
2021/11/08 10:11:17;;;;;;;;;6.25;4.50;;;;;20.53;40.61;102079.75;4965419;28;50986;-51
2021/11/08 10:13:45;;;;;;;;;9.00;5.00;;;;;20.56;40.72;102064.72;4965114;28;51255;-53
2021/11/08 10:16:22;;;;;;;;;10.00;4.50;;;;;20.58;41.02;102066.22;4965546;28;51164;-54
2021/11/08 10:18:52;;;;;;;;;4.50;4.00;;;;;20.64;40.52;102070.13;4955021;28;51305;-54
2021/11/08 10:21:20;;;;;;;;;5.75;4.25;;;;;20.73;40.53;102080.81;4955946;28;51105;-53
2021/11/08 10:23:49;;;;;;;;;8.50;5.75;;;;;20.84;40.35;102073.97;4956569;28;51160;-55
2021/11/08 10:26:18;;;;;;;;;6.75;4.50;;;;;20.98;40.33;102080.44;4962871;28;51137;-55
2021/11/08 10:28:56;;;;;;;;;5.00;4.25;;;;;21.10;40.11;102081.63;4958567;28;51920;-52
2021/11/08 10:31:28;;;;;;;;;6.00;5.25;;;;;21.23;40.09;102073.47;4961630;28;51073;-55
2021/11/08 10:33:55;;;;;;;;;6.50;5.00;;;;;21.37;39.82;102081.94;4962069;28;51207;-54
2021/11/08 10:36:22;;;;;;;;;6.00;5.00;;;;;21.49;40.18;102083.09;4956864;28;51231;-55
2021/11/08 10:38:51;;;;;;;;;4.25;4.25;;;;;21.60;39.42;102083.38;4963105;28;51831;-53
2021/11/08 10:41:19;;;;;;;;;11.25;6.00;;;;;21.70;39.47;102080.28;4961944;28;51489;-55
2021/11/08 10:43:50;;;;;;;;;7.25;5.25;;;;;21.82;39.52;102080.56;4957264;28;51330;-52
2021/11/08 10:46:21;;;;;;;;;4.50;3.25;;;;;21.91;39.51;102079.38;4975221;28;52172;-54
2021/11/08 10:48:59;;;;;;;;;8.50;6.50;;;;;22.01;39.29;102079.00;4966455;28;53046;-55
2021/11/08 10:51:28;;;;;;;;;9.00;6.50;;;;;22.05;38.59;102072.00;4963117;28;51193;-55
2021/11/08 10:53:54;;;;;;;;;6.00;6.00;;;;;22.05;38.55;102077.53;4961147;28;52209;-55
2021/11/08 10:56:29;;;;;;;;;6.25;5.75;;;;;22.05;39.00;102074.78;4960867;28;51270;-54
2021/11/08 10:58:59;;;;;;;;;6.75;6.25;;;;;22.04;38.77;102075.84;4960316;28;52098;-54
2021/11/08 11:01:31;;;;;;;;;7.50;6.75;;;;;22.02;38.28;102066.91;4955033;28;51136;-56
2021/11/08 11:03:59;;;;;;;;;6.50;5.00;;;;;22.00;38.47;102058.84;4959454;28;51159;-53
2021/11/08 11:06:37;;;;;;;;;7.75;6.00;;;;;21.98;38.71;102060.06;4955996;28;51337;-54
2021/11/08 11:09:09;;;;;;;;;9.00;3.25;;;;;21.96;38.14;102063.03;4955457;28;51191;-53
2021/11/08 11:11:35;;;;;;;;;5.25;4.25;;;;;21.95;38.36;102057.72;4959593;28;51093;-54
2021/11/08 11:14:01;;;;;;;;;5.75;4.75;;;;;21.95;37.74;102058.59;4958676;28;51605;-55
2021/11/08 11:16:50;;;;;;;;;9.25;5.25;;;;;22.02;37.64;102061.41;4960134;28;51184;-54
2021/11/08 11:19:18;;;;;;;;;7.75;5.25;;;;;22.08;37.83;102066.97;4955764;28;51841;-55
2021/11/08 11:22:04;;;;;;;;;6.00;5.00;;;;;22.17;37.59;102064.88;4961620;28;51343;-53
2021/11/08 11:24:46;;;;;;;;;9.50;5.25;;;;;22.24;37.73;102076.81;4958125;28;51005;-52
2021/11/08 11:27:30;;;;;;;;;5.00;4.75;;;;;22.27;37.31;102065.38;4963482;28;51117;-53
2021/11/08 11:30:10;;;;;;;;;6.25;4.75;;;;;22.28;37.60;102064.31;4972025;28;51991;-54
2021/11/08 11:32:36;;;;;;;;;8.00;5.75;;;;;22.26;37.46;102063.66;4964112;28;51268;-52
2021/11/08 11:35:09;;;;;;;;;5.25;5.25;;;;;22.21;37.21;102057.94;4959733;28;52238;-51
2021/11/08 11:37:35;;;;;;;;;6.75;4.50;;;;;22.17;37.21;102059.38;4958608;28;52294;-53
2021/11/08 11:40:18;;;;;;;;;3.00;3.00;;;;;22.13;37.69;102047.06;4956317;28;51159;-55
2021/11/08 11:42:53;;;;;;;;;5.00;5.00;;;;;22.08;37.44;102047.66;4957703;28;51046;-54
2021/11/08 11:45:20;;;;;;;;;7.50;5.25;;;;;22.06;37.16;102049.75;4956848;28;51402;-55
2021/11/08 11:48:16;;;;;;;;;4.25;4.00;;;;;22.08;36.89;102039.38;4967291;28;52905;-54
2021/11/08 11:50:41;;;;;;;;;5.00;4.25;;;;;22.15;37.34;102036.66;4972173;28;51554;-54
2021/11/08 11:53:07;;;;;;;;;3.50;3.00;;;;;22.20;36.80;102039.66;4952944;28;51273;-53
2021/11/08 11:55:36;;;;;;;;;5.25;3.75;;;;;22.26;36.60;102040.75;4959444;28;51149;-53
2021/11/08 11:58:01;;;;;;;;;6.75;3.25;;;;;22.31;36.53;102044.59;4956998;28;51177;-54
2021/11/08 12:00:34;;;;;;;;;6.75;3.50;;;;;22.35;36.98;102034.84;4968573;28;51781;-54
2021/11/08 12:03:00;;;;;;;;;9.00;7.50;;;;;22.35;36.83;102033.97;4957820;28;51271;-54
2021/11/08 12:05:29;;;;;;;;;15.25;10.75;;;;;22.33;36.29;102031.44;4957233;28;52227;-58
2021/11/08 12:07:56;;;;;;;;;33.25;30.50;;;;;22.32;36.82;102017.84;4967505;28;51236;-54
2021/11/08 12:10:22;;;;;;;;;28.50;24.25;;;;;22.31;36.83;102030.78;4961417;28;51208;-53
2021/11/08 12:12:47;;;;;;;;;27.75;22.25;;;;;22.28;36.33;102033.09;4955278;28;52039;-52
2021/11/08 12:15:16;;;;;;;;;20.00;16.50;;;;;22.26;36.31;102024.19;4964806;28;51777;-50
2021/11/08 12:17:47;;;;;;;;;17.25;17.25;;;;;22.23;36.78;102022.69;4959038;28;51086;-51
2021/11/08 12:20:16;;;;;;;;;18.75;15.75;;;;;22.23;36.59;102014.41;4959200;28;51293;-52
2021/11/08 12:22:42;;;;;;;;;17.25;14.50;;;;;22.23;36.19;102002.50;4967470;28;52433;-51
2021/11/08 12:25:18;;;;;;;;;13.50;12.75;;;;;22.27;36.44;102007.41;4963270;28;51106;-52
2021/11/08 12:27:49;;;;;;;;;17.50;13.75;;;;;22.33;35.87;102008.50;4961616;28;51093;-52
2021/11/08 12:30:33;;;;;;;;;10.50;8.75;;;;;22.40;36.14;102001.91;4957147;28;52354;-54
2021/11/08 12:33:08;;;;;;;;;9.25;8.50;;;;;22.48;35.92;102004.50;4960000;28;51999;-55
2021/11/08 12:35:37;;;;;;;;;10.25;9.00;;;;;22.50;36.50;101998.75;4956433;27;51062;-58
2021/11/08 12:38:16;;;;;;;;;17.50;9.25;;;;;22.48;35.55;101996.22;4953898;28;51016;-55
2021/11/08 12:40:42;;;;;;;;;12.25;9.50;;;;;22.46;36.04;101986.44;4958931;28;52618;-52
2021/11/08 12:43:08;;;;;;;;;12.75;9.25;;;;;22.42;36.26;101987.94;4959614;28;52338;-54
2021/11/08 12:45:42;;;;;;;;;12.25;9.75;;;;;22.37;35.80;101987.69;4956944;28;51293;-55
2021/11/08 12:48:09;;;;;;;;;9.75;8.00;;;;;22.32;36.03;101981.97;4967204;28;51702;-51
2021/11/08 12:50:36;;;;;;;;;13.00;8.00;;;;;22.28;36.34;101981.50;4960266;28;51709;-50
2021/11/08 12:53:02;;;;;;;;;9.25;6.75;;;;;22.23;36.10;101978.53;4958608;28;51446;-54
2021/11/08 12:55:40;;;;;;;;;11.75;10.00;;;;;22.18;36.52;101967.25;4964306;28;51507;-54
2021/11/08 12:58:07;;;;;;;;;6.75;6.00;;;;;22.13;36.41;101967.03;4958771;28;51198;-55
2021/11/08 13:00:38;;;;;;;;;11.75;7.00;;;;;22.08;36.44;101962.09;4958553;28;51726;-51
2021/11/08 13:03:12;;;;;;;;;8.25;7.25;;;;;22.03;36.50;101959.09;4957304;28;51292;-54
2021/11/08 13:05:41;;;;;;;;;7.00;4.00;;;;;21.99;36.59;101962.47;4958647;28;51179;-53
2021/11/08 13:08:26;;;;;;;;;6.75;6.75;;;;;21.93;36.93;101968.81;4959966;28;51062;-54
2021/11/08 13:10:56;;;;;;;;;7.00;5.00;;;;;21.89;36.80;101958.19;4965444;28;52022;-55
2021/11/08 13:13:22;;;;;;;;;9.00;6.00;;;;;21.87;36.73;101964.94;4972050;28;51307;-55
2021/11/08 13:15:48;;;;;;;;;8.25;7.00;;;;;21.84;36.83;101959.84;4973113;28;51556;-54